sensor_id;sensor_type;location;lat;lon;timestamp;temperature;humidity
12481;DHT22;6305;48.398;11.762;2023-07-24T00:01:27;16.10;99.90
12481;DHT22;6305;48.398;11.762;2023-07-24T00:03:54;16.10;99.90
12481;DHT22;6305;48.398;11.762;2023-07-24T00:06:21;16.10;99.90
12481;DHT22;6305;48.398;11.762;2023-07-24T00:08:50;16.10;99.90
12481;DHT22;6305;48.398;11.762;2023-07-24T00:11:17;16.00;99.90
12481;DHT22;6305;48.398;11.762;2023-07-24T00:13:44;16.00;99.90
12481;DHT22;6305;48.398;11.762;2023-07-24T00:16:12;16.00;99.90
12481;DHT22;6305;48.398;11.762;2023-07-24T00:18:39;15.90;99.90
12481;DHT22;6305;48.398;11.762;2023-07-24T00:21:06;15.90;99.90
12481;DHT22;6305;48.398;11.762;2023-07-24T00:23:34;15.90;99.90
12481;DHT22;6305;48.398;11.762;2023-07-24T00:26:02;16.00;99.90
12481;DHT22;6305;48.398;11.762;2023-07-24T00:28:29;15.90;99.90
12481;DHT22;6305;48.398;11.762;2023-07-24T00:30:56;15.90;99.90
12481;DHT22;6305;48.398;11.762;2023-07-24T00:33:23;15.90;99.90
12481;DHT22;6305;48.398;11.762;2023-07-24T00:35:50;15.80;99.90
12481;DHT22;6305;48.398;11.762;2023-07-24T00:38:17;15.80;99.90
12481;DHT22;6305;48.398;11.762;2023-07-24T00:40:44;15.80;99.90
12481;DHT22;6305;48.398;11.762;2023-07-24T00:43:12;15.80;99.90
12481;DHT22;6305;48.398;11.762;2023-07-24T00:45:39;15.70;99.90
12481;DHT22;6305;48.398;11.762;2023-07-24T00:48:06;15.70;99.90
12481;DHT22;6305;48.398;11.762;2023-07-24T00:50:33;15.70;99.90
12481;DHT22;6305;48.398;11.762;2023-07-24T00:53:02;15.60;99.90
12481;DHT22;6305;48.398;11.762;2023-07-24T00:55:29;15.60;99.90
12481;DHT22;6305;48.398;11.762;2023-07-24T00:57:58;15.60;99.90
12481;DHT22;6305;48.398;11.762;2023-07-24T01:00:26;15.50;99.90
12481;DHT22;6305;48.398;11.762;2023-07-24T01:02:55;15.60;99.90
12481;DHT22;6305;48.398;11.762;2023-07-24T01:05:24;15.50;99.90
12481;DHT22;6305;48.398;11.762;2023-07-24T01:07:52;15.50;99.90
12481;DHT22;6305;48.398;11.762;2023-07-24T01:10:19;15.50;99.90
12481;DHT22;6305;48.398;11.762;2023-07-24T01:12:57;15.40;99.90
12481;DHT22;6305;48.398;11.762;2023-07-24T01:15:30;15.40;99.90
12481;DHT22;6305;48.398;11.762;2023-07-24T01:18:00;15.50;99.90
12481;DHT22;6305;48.398;11.762;2023-07-24T01:20:29;15.50;99.90
12481;DHT22;6305;48.398;11.762;2023-07-24T01:23:14;15.40;99.90
12481;DHT22;6305;48.398;11.762;2023-07-24T01:25:53;15.40;99.90
12481;DHT22;6305;48.398;11.762;2023-07-24T01:28:21;15.40;99.90
12481;DHT22;6305;48.398;11.762;2023-07-24T01:30:48;15.40;99.90
12481;DHT22;6305;48.398;11.762;2023-07-24T01:33:15;15.40;99.90
12481;DHT22;6305;48.398;11.762;2023-07-24T01:35:48;15.40;99.90
12481;DHT22;6305;48.398;11.762;2023-07-24T01:38:16;15.40;99.90
12481;DHT22;6305;48.398;11.762;2023-07-24T01:40:45;15.30;99.90
12481;DHT22;6305;48.398;11.762;2023-07-24T01:43:14;15.40;99.90
12481;DHT22;6305;48.398;11.762;2023-07-24T01:45:41;15.40;99.90
12481;DHT22;6305;48.398;11.762;2023-07-24T01:48:08;15.60;99.90
12481;DHT22;6305;48.398;11.762;2023-07-24T01:50:35;15.80;99.90
12481;DHT22;6305;48.398;11.762;2023-07-24T01:53:02;16.00;99.90
12481;DHT22;6305;48.398;11.762;2023-07-24T01:55:29;16.10;99.90
12481;DHT22;6305;48.398;11.762;2023-07-24T01:57:56;16.20;99.90
12481;DHT22;6305;48.398;11.762;2023-07-24T02:00:25;16.30;99.90
12481;DHT22;6305;48.398;11.762;2023-07-24T02:02:56;16.50;99.90
12481;DHT22;6305;48.398;11.762;2023-07-24T02:05:24;16.50;99.90
12481;DHT22;6305;48.398;11.762;2023-07-24T02:07:51;16.60;99.90
12481;DHT22;6305;48.398;11.762;2023-07-24T02:10:18;16.60;99.90
12481;DHT22;6305;48.398;11.762;2023-07-24T02:12:45;16.50;99.90
12481;DHT22;6305;48.398;11.762;2023-07-24T02:15:12;16.50;99.90
12481;DHT22;6305;48.398;11.762;2023-07-24T02:17:41;16.40;99.90
12481;DHT22;6305;48.398;11.762;2023-07-24T02:20:10;16.50;99.90
12481;DHT22;6305;48.398;11.762;2023-07-24T02:22:42;16.50;99.90
12481;DHT22;6305;48.398;11.762;2023-07-24T02:28:31;16.70;99.90
12481;DHT22;6305;48.398;11.762;2023-07-24T02:31:30;16.70;99.90
12481;DHT22;6305;48.398;11.762;2023-07-24T02:34:24;16.70;99.90
12481;DHT22;6305;48.398;11.762;2023-07-24T02:37:25;16.80;99.90
12481;DHT22;6305;48.398;11.762;2023-07-24T02:40:31;16.80;99.90
12481;DHT22;6305;48.398;11.762;2023-07-24T02:44:12;16.90;99.90
12481;DHT22;6305;48.398;11.762;2023-07-24T02:46:47;17.00;99.90
12481;DHT22;6305;48.398;11.762;2023-07-24T02:49:14;17.10;99.90
12481;DHT22;6305;48.398;11.762;2023-07-24T02:51:42;16.90;99.90
12481;DHT22;6305;48.398;11.762;2023-07-24T02:54:10;16.60;99.90
12481;DHT22;6305;48.398;11.762;2023-07-24T02:56:37;16.30;99.90
12481;DHT22;6305;48.398;11.762;2023-07-24T02:59:08;16.20;99.90
12481;DHT22;6305;48.398;11.762;2023-07-24T03:01:37;16.00;99.90
12481;DHT22;6305;48.398;11.762;2023-07-24T03:04:05;15.90;99.90
12481;DHT22;6305;48.398;11.762;2023-07-24T03:06:32;15.80;99.90
12481;DHT22;6305;48.398;11.762;2023-07-24T03:09:01;15.80;99.90
12481;DHT22;6305;48.398;11.762;2023-07-24T03:11:28;15.80;99.90
12481;DHT22;6305;48.398;11.762;2023-07-24T03:13:55;15.70;99.90
12481;DHT22;6305;48.398;11.762;2023-07-24T03:16:22;15.70;99.90
12481;DHT22;6305;48.398;11.762;2023-07-24T03:18:49;15.70;99.90
12481;DHT22;6305;48.398;11.762;2023-07-24T03:21:17;15.80;99.90
12481;DHT22;6305;48.398;11.762;2023-07-24T03:23:44;15.90;99.90
12481;DHT22;6305;48.398;11.762;2023-07-24T03:26:12;16.10;99.90
12481;DHT22;6305;48.398;11.762;2023-07-24T03:28:42;16.20;99.90
12481;DHT22;6305;48.398;11.762;2023-07-24T03:31:09;16.30;99.90
12481;DHT22;6305;48.398;11.762;2023-07-24T03:33:36;16.40;99.90
12481;DHT22;6305;48.398;11.762;2023-07-24T03:36:03;16.40;99.90
12481;DHT22;6305;48.398;11.762;2023-07-24T03:38:30;16.40;99.90
12481;DHT22;6305;48.398;11.762;2023-07-24T03:41:01;16.50;99.90
12481;DHT22;6305;48.398;11.762;2023-07-24T03:43:34;16.50;99.90
12481;DHT22;6305;48.398;11.762;2023-07-24T03:46:01;16.50;99.90
12481;DHT22;6305;48.398;11.762;2023-07-24T03:48:28;16.60;99.90
12481;DHT22;6305;48.398;11.762;2023-07-24T03:50:58;16.60;99.90
12481;DHT22;6305;48.398;11.762;2023-07-24T03:53:27;16.60;99.90
12481;DHT22;6305;48.398;11.762;2023-07-24T03:55:54;16.70;99.90
12481;DHT22;6305;48.398;11.762;2023-07-24T03:58:24;16.70;99.90
12481;DHT22;6305;48.398;11.762;2023-07-24T04:01:01;16.70;99.90
12481;DHT22;6305;48.398;11.762;2023-07-24T04:03:38;16.70;99.90
12481;DHT22;6305;48.398;11.762;2023-07-24T04:06:05;16.70;99.90
12481;DHT22;6305;48.398;11.762;2023-07-24T04:08:31;16.70;99.90
12481;DHT22;6305;48.398;11.762;2023-07-24T04:10:58;16.70;99.90
12481;DHT22;6305;48.398;11.762;2023-07-24T04:13:27;16.70;99.90
12481;DHT22;6305;48.398;11.762;2023-07-24T04:15:55;16.70;99.90
12481;DHT22;6305;48.398;11.762;2023-07-24T04:18:25;16.80;99.90
12481;DHT22;6305;48.398;11.762;2023-07-24T04:20:52;16.70;99.90
12481;DHT22;6305;48.398;11.762;2023-07-24T04:23:19;16.80;99.90
12481;DHT22;6305;48.398;11.762;2023-07-24T04:25:48;16.80;99.90
12481;DHT22;6305;48.398;11.762;2023-07-24T04:28:15;16.90;99.90
12481;DHT22;6305;48.398;11.762;2023-07-24T04:30:42;16.90;99.90
12481;DHT22;6305;48.398;11.762;2023-07-24T04:33:11;16.80;99.90
12481;DHT22;6305;48.398;11.762;2023-07-24T04:35:38;16.90;99.90
12481;DHT22;6305;48.398;11.762;2023-07-24T04:38:05;16.80;99.90
12481;DHT22;6305;48.398;11.762;2023-07-24T04:40:36;17.00;99.90
12481;DHT22;6305;48.398;11.762;2023-07-24T04:43:03;17.10;99.90
12481;DHT22;6305;48.398;11.762;2023-07-24T04:45:32;17.20;99.90
12481;DHT22;6305;48.398;11.762;2023-07-24T04:47:59;17.20;99.90
12481;DHT22;6305;48.398;11.762;2023-07-24T04:50:27;17.10;99.90
12481;DHT22;6305;48.398;11.762;2023-07-24T04:52:55;17.00;99.90
12481;DHT22;6305;48.398;11.762;2023-07-24T04:55:22;16.90;99.90
12481;DHT22;6305;48.398;11.762;2023-07-24T04:57:49;16.80;99.90
12481;DHT22;6305;48.398;11.762;2023-07-24T05:00:21;16.90;99.90
12481;DHT22;6305;48.398;11.762;2023-07-24T05:02:48;17.00;99.90
12481;DHT22;6305;48.398;11.762;2023-07-24T05:05:15;17.00;99.90
12481;DHT22;6305;48.398;11.762;2023-07-24T05:07:49;17.00;99.90
12481;DHT22;6305;48.398;11.762;2023-07-24T05:10:18;17.20;99.90
12481;DHT22;6305;48.398;11.762;2023-07-24T05:12:53;17.20;99.90
12481;DHT22;6305;48.398;11.762;2023-07-24T05:15:22;17.20;99.90
12481;DHT22;6305;48.398;11.762;2023-07-24T05:17:49;17.20;99.90
12481;DHT22;6305;48.398;11.762;2023-07-24T05:20:16;17.10;99.90
12481;DHT22;6305;48.398;11.762;2023-07-24T05:22:44;17.10;99.90
12481;DHT22;6305;48.398;11.762;2023-07-24T05:25:13;17.20;99.90
12481;DHT22;6305;48.398;11.762;2023-07-24T05:27:41;17.20;99.90
12481;DHT22;6305;48.398;11.762;2023-07-24T05:30:08;17.10;99.90
12481;DHT22;6305;48.398;11.762;2023-07-24T05:32:43;17.20;99.90
12481;DHT22;6305;48.398;11.762;2023-07-24T05:35:10;17.10;99.90
12481;DHT22;6305;48.398;11.762;2023-07-24T05:37:37;17.20;99.90
12481;DHT22;6305;48.398;11.762;2023-07-24T05:40:06;17.20;99.90
12481;DHT22;6305;48.398;11.762;2023-07-24T05:42:34;17.20;99.90
12481;DHT22;6305;48.398;11.762;2023-07-24T05:45:06;17.20;99.90
12481;DHT22;6305;48.398;11.762;2023-07-24T05:47:33;17.20;99.90
12481;DHT22;6305;48.398;11.762;2023-07-24T05:50:01;17.20;99.90
12481;DHT22;6305;48.398;11.762;2023-07-24T05:52:28;17.10;99.90
12481;DHT22;6305;48.398;11.762;2023-07-24T05:54:55;17.10;99.90
12481;DHT22;6305;48.398;11.762;2023-07-24T05:57:25;17.10;99.90
12481;DHT22;6305;48.398;11.762;2023-07-24T05:59:57;17.10;99.90
12481;DHT22;6305;48.398;11.762;2023-07-24T06:02:24;17.30;99.90
12481;DHT22;6305;48.398;11.762;2023-07-24T06:04:52;17.70;99.90
12481;DHT22;6305;48.398;11.762;2023-07-24T06:07:21;17.90;99.90
12481;DHT22;6305;48.398;11.762;2023-07-24T06:09:48;17.90;99.90
12481;DHT22;6305;48.398;11.762;2023-07-24T06:12:15;17.90;99.90
12481;DHT22;6305;48.398;11.762;2023-07-24T06:14:42;18.00;99.90
12481;DHT22;6305;48.398;11.762;2023-07-24T06:17:11;18.40;99.90
12481;DHT22;6305;48.398;11.762;2023-07-24T06:19:38;18.80;99.90
12481;DHT22;6305;48.398;11.762;2023-07-24T06:22:05;19.30;99.90
12481;DHT22;6305;48.398;11.762;2023-07-24T06:24:32;19.70;99.90
12481;DHT22;6305;48.398;11.762;2023-07-24T06:26:59;19.90;99.90
12481;DHT22;6305;48.398;11.762;2023-07-24T06:29:26;19.90;99.90
12481;DHT22;6305;48.398;11.762;2023-07-24T06:31:53;20.00;99.90
12481;DHT22;6305;48.398;11.762;2023-07-24T06:34:21;20.00;99.90
12481;DHT22;6305;48.398;11.762;2023-07-24T06:36:48;20.20;99.90
12481;DHT22;6305;48.398;11.762;2023-07-24T06:39:15;20.70;99.90
12481;DHT22;6305;48.398;11.762;2023-07-24T06:41:42;21.10;99.90
12481;DHT22;6305;48.398;11.762;2023-07-24T06:44:09;21.30;99.90
12481;DHT22;6305;48.398;11.762;2023-07-24T06:46:37;21.60;99.90
12481;DHT22;6305;48.398;11.762;2023-07-24T06:49:04;22.40;99.90
12481;DHT22;6305;48.398;11.762;2023-07-24T06:51:32;22.90;99.90
12481;DHT22;6305;48.398;11.762;2023-07-24T06:53:59;24.70;99.90
12481;DHT22;6305;48.398;11.762;2023-07-24T06:56:26;26.60;99.90
12481;DHT22;6305;48.398;11.762;2023-07-24T06:58:54;27.40;99.90
12481;DHT22;6305;48.398;11.762;2023-07-24T07:01:21;28.80;99.90
12481;DHT22;6305;48.398;11.762;2023-07-24T07:03:49;30.30;99.90
12481;DHT22;6305;48.398;11.762;2023-07-24T07:06:16;31.70;95.00
12481;DHT22;6305;48.398;11.762;2023-07-24T07:08:44;32.60;88.50
12481;DHT22;6305;48.398;11.762;2023-07-24T07:11:11;33.20;79.70
12481;DHT22;6305;48.398;11.762;2023-07-24T07:13:38;33.50;71.90
12481;DHT22;6305;48.398;11.762;2023-07-24T07:16:05;33.70;64.60
12481;DHT22;6305;48.398;11.762;2023-07-24T07:18:32;34.10;61.60
12481;DHT22;6305;48.398;11.762;2023-07-24T07:20:59;35.50;58.90
12481;DHT22;6305;48.398;11.762;2023-07-24T07:23:26;36.00;54.70
12481;DHT22;6305;48.398;11.762;2023-07-24T07:25:55;34.70;54.90
12481;DHT22;6305;48.398;11.762;2023-07-24T07:28:22;33.00;55.60
12481;DHT22;6305;48.398;11.762;2023-07-24T07:30:49;30.90;58.30
12481;DHT22;6305;48.398;11.762;2023-07-24T07:33:16;28.70;66.60
12481;DHT22;6305;48.398;11.762;2023-07-24T07:35:43;26.80;80.40
12481;DHT22;6305;48.398;11.762;2023-07-24T07:38:10;25.40;95.50
12481;DHT22;6305;48.398;11.762;2023-07-24T07:40:37;24.40;99.90
12481;DHT22;6305;48.398;11.762;2023-07-24T07:43:06;23.80;99.90
12481;DHT22;6305;48.398;11.762;2023-07-24T07:45:35;23.40;99.90
12481;DHT22;6305;48.398;11.762;2023-07-24T07:48:03;23.30;99.90
12481;DHT22;6305;48.398;11.762;2023-07-24T07:50:30;23.20;99.90
12481;DHT22;6305;48.398;11.762;2023-07-24T07:52:57;22.80;99.90
12481;DHT22;6305;48.398;11.762;2023-07-24T07:55:25;22.20;99.90
12481;DHT22;6305;48.398;11.762;2023-07-24T07:57:52;21.70;99.90
12481;DHT22;6305;48.398;11.762;2023-07-24T08:00:20;21.20;99.90
12481;DHT22;6305;48.398;11.762;2023-07-24T08:02:47;20.80;99.90
12481;DHT22;6305;48.398;11.762;2023-07-24T08:05:15;20.50;99.90
12481;DHT22;6305;48.398;11.762;2023-07-24T08:07:42;20.20;99.90
12481;DHT22;6305;48.398;11.762;2023-07-24T08:10:09;20.00;99.90
12481;DHT22;6305;48.398;11.762;2023-07-24T08:12:36;19.80;99.90
12481;DHT22;6305;48.398;11.762;2023-07-24T08:15:04;19.70;99.90
12481;DHT22;6305;48.398;11.762;2023-07-24T08:17:35;19.40;99.90
12481;DHT22;6305;48.398;11.762;2023-07-24T08:20:10;19.00;99.90
12481;DHT22;6305;48.398;11.762;2023-07-24T08:22:37;18.70;99.90
12481;DHT22;6305;48.398;11.762;2023-07-24T08:25:05;18.40;99.90
12481;DHT22;6305;48.398;11.762;2023-07-24T08:27:33;18.10;99.90
12481;DHT22;6305;48.398;11.762;2023-07-24T08:30:00;18.00;99.90
12481;DHT22;6305;48.398;11.762;2023-07-24T08:32:27;17.90;99.90
12481;DHT22;6305;48.398;11.762;2023-07-24T08:34:56;17.90;99.90
12481;DHT22;6305;48.398;11.762;2023-07-24T08:37:23;17.80;99.90
12481;DHT22;6305;48.398;11.762;2023-07-24T08:39:50;17.80;99.90
12481;DHT22;6305;48.398;11.762;2023-07-24T08:42:17;17.90;99.90
12481;DHT22;6305;48.398;11.762;2023-07-24T08:44:46;18.10;99.90
12481;DHT22;6305;48.398;11.762;2023-07-24T08:47:21;18.20;99.90
12481;DHT22;6305;48.398;11.762;2023-07-24T08:49:52;18.30;99.90
12481;DHT22;6305;48.398;11.762;2023-07-24T08:52:22;18.30;99.90
12481;DHT22;6305;48.398;11.762;2023-07-24T08:54:50;18.50;99.90
12481;DHT22;6305;48.398;11.762;2023-07-24T08:57:17;18.70;99.90
12481;DHT22;6305;48.398;11.762;2023-07-24T08:59:45;19.00;99.90
12481;DHT22;6305;48.398;11.762;2023-07-24T09:02:12;19.20;99.90
12481;DHT22;6305;48.398;11.762;2023-07-24T09:04:39;19.20;99.90
12481;DHT22;6305;48.398;11.762;2023-07-24T09:07:06;19.20;99.90
12481;DHT22;6305;48.398;11.762;2023-07-24T09:09:35;19.40;99.90
12481;DHT22;6305;48.398;11.762;2023-07-24T09:12:02;19.80;99.90
12481;DHT22;6305;48.398;11.762;2023-07-24T09:14:30;20.20;99.90
12481;DHT22;6305;48.398;11.762;2023-07-24T09:17:05;20.70;99.90
12481;DHT22;6305;48.398;11.762;2023-07-24T09:19:33;21.50;99.90
12481;DHT22;6305;48.398;11.762;2023-07-24T09:22:11;23.00;99.90
12481;DHT22;6305;48.398;11.762;2023-07-24T09:24:49;24.00;99.90
12481;DHT22;6305;48.398;11.762;2023-07-24T09:27:16;24.30;99.90
12481;DHT22;6305;48.398;11.762;2023-07-24T09:29:44;24.50;99.90
12481;DHT22;6305;48.398;11.762;2023-07-24T09:32:19;24.40;99.90
12481;DHT22;6305;48.398;11.762;2023-07-24T09:34:47;24.20;99.90
12481;DHT22;6305;48.398;11.762;2023-07-24T09:37:26;24.00;99.90
12481;DHT22;6305;48.398;11.762;2023-07-24T09:39:55;24.40;99.90
12481;DHT22;6305;48.398;11.762;2023-07-24T09:42:30;25.00;99.90
12481;DHT22;6305;48.398;11.762;2023-07-24T09:44:57;25.10;99.90
12481;DHT22;6305;48.398;11.762;2023-07-24T09:47:24;25.00;99.90
12481;DHT22;6305;48.398;11.762;2023-07-24T09:49:52;24.50;99.90
12481;DHT22;6305;48.398;11.762;2023-07-24T09:52:21;24.00;99.90
12481;DHT22;6305;48.398;11.762;2023-07-24T09:55:03;23.60;99.90
12481;DHT22;6305;48.398;11.762;2023-07-24T09:57:37;23.40;99.90
12481;DHT22;6305;48.398;11.762;2023-07-24T10:00:06;23.10;99.90
12481;DHT22;6305;48.398;11.762;2023-07-24T10:02:37;23.00;99.90
12481;DHT22;6305;48.398;11.762;2023-07-24T10:05:05;23.10;99.90
12481;DHT22;6305;48.398;11.762;2023-07-24T10:07:36;23.50;99.90
12481;DHT22;6305;48.398;11.762;2023-07-24T10:10:07;24.30;99.90
12481;DHT22;6305;48.398;11.762;2023-07-24T10:12:49;25.00;99.90
12481;DHT22;6305;48.398;11.762;2023-07-24T10:15:17;25.60;99.90
12481;DHT22;6305;48.398;11.762;2023-07-24T10:17:45;25.90;99.90
12481;DHT22;6305;48.398;11.762;2023-07-24T10:20:12;25.80;99.90
12481;DHT22;6305;48.398;11.762;2023-07-24T10:22:41;25.70;99.90
12481;DHT22;6305;48.398;11.762;2023-07-24T10:25:11;25.50;99.90
12481;DHT22;6305;48.398;11.762;2023-07-24T10:28:03;25.60;99.90
12481;DHT22;6305;48.398;11.762;2023-07-24T10:30:34;25.80;99.90
12481;DHT22;6305;48.398;11.762;2023-07-24T10:33:08;26.20;99.90
12481;DHT22;6305;48.398;11.762;2023-07-24T10:35:41;26.60;99.90
12481;DHT22;6305;48.398;11.762;2023-07-24T10:38:31;26.70;99.90
12481;DHT22;6305;48.398;11.762;2023-07-24T10:41:06;26.90;99.90
12481;DHT22;6305;48.398;11.762;2023-07-24T10:43:44;27.10;99.90
12481;DHT22;6305;48.398;11.762;2023-07-24T10:46:34;27.70;99.90
12481;DHT22;6305;48.398;11.762;2023-07-24T10:49:08;28.20;98.20
12481;DHT22;6305;48.398;11.762;2023-07-24T10:51:35;28.20;96.10
12481;DHT22;6305;48.398;11.762;2023-07-24T10:54:04;27.80;96.00
12481;DHT22;6305;48.398;11.762;2023-07-24T10:56:33;27.40;98.30
12481;DHT22;6305;48.398;11.762;2023-07-24T10:59:05;27.10;99.90
12481;DHT22;6305;48.398;11.762;2023-07-24T11:01:32;26.80;99.90
12481;DHT22;6305;48.398;11.762;2023-07-24T11:04:00;26.60;99.90
12481;DHT22;6305;48.398;11.762;2023-07-24T11:06:27;26.60;99.90
12481;DHT22;6305;48.398;11.762;2023-07-24T11:08:56;26.60;99.90
12481;DHT22;6305;48.398;11.762;2023-07-24T11:11:28;26.70;99.90
12481;DHT22;6305;48.398;11.762;2023-07-24T11:13:58;26.90;99.90
12481;DHT22;6305;48.398;11.762;2023-07-24T11:16:26;27.80;99.90
12481;DHT22;6305;48.398;11.762;2023-07-24T11:18:53;28.90;98.30
12481;DHT22;6305;48.398;11.762;2023-07-24T11:21:22;29.40;93.30
12481;DHT22;6305;48.398;11.762;2023-07-24T11:23:51;30.10;91.30
12481;DHT22;6305;48.398;11.762;2023-07-24T11:26:19;30.90;81.80
12481;DHT22;6305;48.398;11.762;2023-07-24T11:28:48;31.60;75.70
12481;DHT22;6305;48.398;11.762;2023-07-24T11:31:16;31.70;67.30
12481;DHT22;6305;48.398;11.762;2023-07-24T11:33:46;31.60;65.90
12481;DHT22;6305;48.398;11.762;2023-07-24T11:36:14;31.90;64.80
12481;DHT22;6305;48.398;11.762;2023-07-24T11:38:41;33.10;62.50
12481;DHT22;6305;48.398;11.762;2023-07-24T11:41:09;34.60;55.50
12481;DHT22;6305;48.398;11.762;2023-07-24T11:43:45;35.80;51.50
12481;DHT22;6305;48.398;11.762;2023-07-24T11:46:23;36.90;48.50
12481;DHT22;6305;48.398;11.762;2023-07-24T11:48:51;37.50;42.80
12481;DHT22;6305;48.398;11.762;2023-07-24T11:51:19;37.60;42.00
12481;DHT22;6305;48.398;11.762;2023-07-24T11:53:46;37.90;41.20
12481;DHT22;6305;48.398;11.762;2023-07-24T11:56:14;37.80;38.70
12481;DHT22;6305;48.398;11.762;2023-07-24T11:58:42;37.60;38.30
12481;DHT22;6305;48.398;11.762;2023-07-24T12:01:10;37.10;39.00
12481;DHT22;6305;48.398;11.762;2023-07-24T12:03:38;35.90;41.10
12481;DHT22;6305;48.398;11.762;2023-07-24T12:06:05;35.70;41.60
12481;DHT22;6305;48.398;11.762;2023-07-24T12:08:40;35.20;42.10
12481;DHT22;6305;48.398;11.762;2023-07-24T12:11:16;34.30;44.50
12481;DHT22;6305;48.398;11.762;2023-07-24T12:13:53;33.20;46.60
12481;DHT22;6305;48.398;11.762;2023-07-24T12:16:34;31.80;48.20
12481;DHT22;6305;48.398;11.762;2023-07-24T12:19:06;30.40;51.40
12481;DHT22;6305;48.398;11.762;2023-07-24T12:21:36;29.10;55.20
12481;DHT22;6305;48.398;11.762;2023-07-24T12:24:06;28.00;58.40
12481;DHT22;6305;48.398;11.762;2023-07-24T12:26:35;27.20;63.10
12481;DHT22;6305;48.398;11.762;2023-07-24T12:29:04;26.60;73.10
12481;DHT22;6305;48.398;11.762;2023-07-24T12:31:34;25.80;90.70
12481;DHT22;6305;48.398;11.762;2023-07-24T12:34:06;24.90;99.90
12481;DHT22;6305;48.398;11.762;2023-07-24T12:40:32;22.80;99.90
12481;DHT22;6305;48.398;11.762;2023-07-24T12:43:21;21.40;99.90
12481;DHT22;6305;48.398;11.762;2023-07-24T12:46:09;20.50;99.90
12481;DHT22;6305;48.398;11.762;2023-07-24T12:48:37;20.10;99.90
12481;DHT22;6305;48.398;11.762;2023-07-24T12:51:13;20.00;99.90
12481;DHT22;6305;48.398;11.762;2023-07-24T12:54:25;20.20;99.90
12481;DHT22;6305;48.398;11.762;2023-07-24T12:56:53;20.50;99.90
12481;DHT22;6305;48.398;11.762;2023-07-24T12:59:20;20.70;99.90
12481;DHT22;6305;48.398;11.762;2023-07-24T13:01:48;20.70;99.90
12481;DHT22;6305;48.398;11.762;2023-07-24T13:04:14;20.60;99.90
12481;DHT22;6305;48.398;11.762;2023-07-24T13:06:43;20.60;99.90
12481;DHT22;6305;48.398;11.762;2023-07-24T13:09:11;20.60;99.90
12481;DHT22;6305;48.398;11.762;2023-07-24T13:11:38;20.50;99.90
12481;DHT22;6305;48.398;11.762;2023-07-24T13:14:05;20.50;99.90
12481;DHT22;6305;48.398;11.762;2023-07-24T13:16:32;20.80;99.90
12481;DHT22;6305;48.398;11.762;2023-07-24T13:18:59;21.00;99.90
12481;DHT22;6305;48.398;11.762;2023-07-24T13:21:26;20.90;99.90
12481;DHT22;6305;48.398;11.762;2023-07-24T13:23:54;20.90;99.90
12481;DHT22;6305;48.398;11.762;2023-07-24T13:26:22;20.80;99.90
12481;DHT22;6305;48.398;11.762;2023-07-24T13:28:49;21.00;99.90
12481;DHT22;6305;48.398;11.762;2023-07-24T13:31:17;21.00;99.90
12481;DHT22;6305;48.398;11.762;2023-07-24T13:33:44;21.20;99.90
12481;DHT22;6305;48.398;11.762;2023-07-24T13:36:12;21.30;99.90
12481;DHT22;6305;48.398;11.762;2023-07-24T13:38:39;21.30;99.90
12481;DHT22;6305;48.398;11.762;2023-07-24T13:41:08;21.10;99.90
12481;DHT22;6305;48.398;11.762;2023-07-24T13:43:35;20.90;99.90
12481;DHT22;6305;48.398;11.762;2023-07-24T13:46:06;20.80;99.90
12481;DHT22;6305;48.398;11.762;2023-07-24T13:48:34;20.90;99.90
12481;DHT22;6305;48.398;11.762;2023-07-24T13:51:08;21.10;99.90
12481;DHT22;6305;48.398;11.762;2023-07-24T13:53:36;21.10;99.90
12481;DHT22;6305;48.398;11.762;2023-07-24T13:56:05;21.30;99.90
12481;DHT22;6305;48.398;11.762;2023-07-24T13:58:41;21.70;99.90
12481;DHT22;6305;48.398;11.762;2023-07-24T14:01:10;22.30;99.90
12481;DHT22;6305;48.398;11.762;2023-07-24T14:03:43;22.70;99.90
12481;DHT22;6305;48.398;11.762;2023-07-24T14:06:12;22.50;99.90
12481;DHT22;6305;48.398;11.762;2023-07-24T14:08:40;22.10;99.90
12481;DHT22;6305;48.398;11.762;2023-07-24T14:11:13;22.00;99.90
12481;DHT22;6305;48.398;11.762;2023-07-24T14:13:42;22.30;99.90
12481;DHT22;6305;48.398;11.762;2023-07-24T14:16:12;22.70;99.90
12481;DHT22;6305;48.398;11.762;2023-07-24T14:18:39;23.20;99.90
12481;DHT22;6305;48.398;11.762;2023-07-24T14:21:13;23.70;99.90
12481;DHT22;6305;48.398;11.762;2023-07-24T14:23:40;24.80;99.90
12481;DHT22;6305;48.398;11.762;2023-07-24T14:26:07;26.00;99.90
12481;DHT22;6305;48.398;11.762;2023-07-24T14:31:49;27.20;99.90
12481;DHT22;6305;48.398;11.762;2023-07-24T14:34:17;27.80;99.90
12481;DHT22;6305;48.398;11.762;2023-07-24T14:36:44;28.40;99.90
12481;DHT22;6305;48.398;11.762;2023-07-24T14:39:11;29.40;99.90
12481;DHT22;6305;48.398;11.762;2023-07-24T14:41:38;30.10;98.50
12481;DHT22;6305;48.398;11.762;2023-07-24T14:44:05;30.40;92.60
12481;DHT22;6305;48.398;11.762;2023-07-24T14:46:33;30.80;90.50
12481;DHT22;6305;48.398;11.762;2023-07-24T14:49:01;31.10;86.70
12481;DHT22;6305;48.398;11.762;2023-07-24T14:51:28;31.40;86.20
12481;DHT22;6305;48.398;11.762;2023-07-24T14:53:55;31.60;87.20
12481;DHT22;6305;48.398;11.762;2023-07-24T14:56:22;31.60;80.40
12481;DHT22;6305;48.398;11.762;2023-07-24T14:58:50;32.10;84.30
12481;DHT22;6305;48.398;11.762;2023-07-24T15:01:17;32.70;77.20
12481;DHT22;6305;48.398;11.762;2023-07-24T15:03:44;32.40;68.90
12481;DHT22;6305;48.398;11.762;2023-07-24T15:06:12;32.20;68.90
12481;DHT22;6305;48.398;11.762;2023-07-24T15:08:39;32.10;69.60
12481;DHT22;6305;48.398;11.762;2023-07-24T15:11:06;32.10;68.20
12481;DHT22;6305;48.398;11.762;2023-07-24T15:13:33;32.00;64.50
12481;DHT22;6305;48.398;11.762;2023-07-24T15:16:00;31.30;65.10
12481;DHT22;6305;48.398;11.762;2023-07-24T15:18:28;30.00;64.00
12481;DHT22;6305;48.398;11.762;2023-07-24T15:20:55;29.10;73.60
12481;DHT22;6305;48.398;11.762;2023-07-24T15:23:23;28.80;75.20
12481;DHT22;6305;48.398;11.762;2023-07-24T15:25:50;28.00;80.00
12481;DHT22;6305;48.398;11.762;2023-07-24T15:28:17;27.50;85.00
12481;DHT22;6305;48.398;11.762;2023-07-24T15:30:44;27.00;84.40
12481;DHT22;6305;48.398;11.762;2023-07-24T15:33:11;26.50;86.30
12481;DHT22;6305;48.398;11.762;2023-07-24T15:35:38;26.00;90.60
12481;DHT22;6305;48.398;11.762;2023-07-24T15:38:05;25.80;93.00
12481;DHT22;6305;48.398;11.762;2023-07-24T15:40:33;25.60;93.70
12481;DHT22;6305;48.398;11.762;2023-07-24T15:43:01;25.30;95.20
12481;DHT22;6305;48.398;11.762;2023-07-24T15:45:28;25.00;97.60
12481;DHT22;6305;48.398;11.762;2023-07-24T15:47:55;24.60;99.90
12481;DHT22;6305;48.398;11.762;2023-07-24T15:50:21;24.40;99.90
12481;DHT22;6305;48.398;11.762;2023-07-24T15:52:48;24.30;99.90
12481;DHT22;6305;48.398;11.762;2023-07-24T15:55:15;24.20;99.90